首页
METAR-TAF:

METAR-TAF

机场 :

拉紹德封, 瑞士

纬度: 47-05-03N, 经度: 006-47-37E, 海拔: 1027米

当前天气观测

该预报发布于24分钟前的20:20 UTC
风速2节,风向西
温度 -1°C
湿度 86%
气压 1003 hPa
能见度10公里或以上

METAR: LSGC 122020Z AUTO 27002KT 9999 NSC M01/M03 Q1003

时间: 21:44 (20:44 UTC)

预报

该预报发布于6小时和19分钟前的14:25 UTC
预报有效从12日的 15点(UTC)到 12日的 24点(UTC)
风速8节,风向西转西南
能见度10公里或以上
散云层高于2000英尺
多云层高于3000英尺

TAF: LSGC 121425Z 1215/1224 24008KT 9999 SCT020 BKN030

超过4000个机场的气象观测和天气预报(METAR&TAF报告)。

可查询的气象台以黄色和红色小点在地图上表示。

将鼠标移到小点上方,可查看气象台名称。

然后点击查看天气观测和预报。

如需切换地图:点击带黑十字的绿色按钮放大地图;点击带横线的绿色按钮缩小地图;或者点击绿色箭头查看邻近地区的地图。


METAR-TAF: